sensor_id;sensor_type;location;lat;lon;timestamp;temperature;humidity
5743;DHT22;2896;53.500;10.020;2023-03-16T00:01:24;-2.10;99.90
5743;DHT22;2896;53.500;10.020;2023-03-16T00:03:51;-2.10;99.90
5743;DHT22;2896;53.500;10.020;2023-03-16T00:06:19;-2.10;99.90
5743;DHT22;2896;53.500;10.020;2023-03-16T00:08:45;-2.10;99.90
5743;DHT22;2896;53.500;10.020;2023-03-16T00:11:12;-2.20;99.90
5743;DHT22;2896;53.500;10.020;2023-03-16T00:13:39;-1.90;99.90
5743;DHT22;2896;53.500;10.020;2023-03-16T00:16:07;-1.90;99.90
5743;DHT22;2896;53.500;10.020;2023-03-16T00:18:34;-2.10;99.90
5743;DHT22;2896;53.500;10.020;2023-03-16T00:21:04;-2.20;99.90
5743;DHT22;2896;53.500;10.020;2023-03-16T00:23:33;-2.20;99.90
5743;DHT22;2896;53.500;10.020;2023-03-16T00:26:03;-1.60;1.00
5743;DHT22;2896;53.500;10.020;2023-03-16T00:28:31;-2.20;1.00
5743;DHT22;2896;53.500;10.020;2023-03-16T00:31:00;-2.20;1.00
5743;DHT22;2896;53.500;10.020;2023-03-16T00:33:26;-2.30;1.00
5743;DHT22;2896;53.500;10.020;2023-03-16T00:35:53;-2.30;1.00
5743;DHT22;2896;53.500;10.020;2023-03-16T00:38:29;-2.30;1.00
5743;DHT22;2896;53.500;10.020;2023-03-16T00:40:57;-2.30;1.00
5743;DHT22;2896;53.500;10.020;2023-03-16T00:43:24;-2.30;1.00
5743;DHT22;2896;53.500;10.020;2023-03-16T00:45:56;-2.40;1.00
5743;DHT22;2896;53.500;10.020;2023-03-16T00:48:23;-2.40;1.00
5743;DHT22;2896;53.500;10.020;2023-03-16T00:50:50;-2.00;1.00
5743;DHT22;2896;53.500;10.020;2023-03-16T00:53:18;-2.40;1.00
5743;DHT22;2896;53.500;10.020;2023-03-16T00:55:46;-2.40;1.00
5743;DHT22;2896;53.500;10.020;2023-03-16T00:58:14;-2.40;1.00
5743;DHT22;2896;53.500;10.020;2023-03-16T01:00:41;-2.40;1.00
5743;DHT22;2896;53.500;10.020;2023-03-16T01:03:07;-2.40;33.50
5743;DHT22;2896;53.500;10.020;2023-03-16T01:05:39;-1.70;99.90
5743;DHT22;2896;53.500;10.020;2023-03-16T01:08:06;-2.40;99.90
5743;DHT22;2896;53.500;10.020;2023-03-16T01:10:33;-2.40;99.90
5743;DHT22;2896;53.500;10.020;2023-03-16T01:13:00;-2.40;99.90
5743;DHT22;2896;53.500;10.020;2023-03-16T01:15:29;-0.80;99.90
5743;DHT22;2896;53.500;10.020;2023-03-16T01:17:55;-2.50;99.90
5743;DHT22;2896;53.500;10.020;2023-03-16T01:20:22;-2.50;99.90
5743;DHT22;2896;53.500;10.020;2023-03-16T01:22:49;-2.70;99.90
5743;DHT22;2896;53.500;10.020;2023-03-16T01:25:16;-2.40;1.00
5743;DHT22;2896;53.500;10.020;2023-03-16T01:27:43;-2.40;1.00
5743;DHT22;2896;53.500;10.020;2023-03-16T01:30:10;-2.20;1.00
5743;DHT22;2896;53.500;10.020;2023-03-16T01:32:39;-2.40;1.00
5743;DHT22;2896;53.500;10.020;2023-03-16T01:35:07;-2.50;1.00
5743;DHT22;2896;53.500;10.020;2023-03-16T01:37:33;-2.50;1.00
5743;DHT22;2896;53.500;10.020;2023-03-16T01:40:00;-2.50;69.20
5743;DHT22;2896;53.500;10.020;2023-03-16T01:42:30;-2.80;99.90
5743;DHT22;2896;53.500;10.020;2023-03-16T01:44:58;-2.80;99.90
5743;DHT22;2896;53.500;10.020;2023-03-16T01:47:30;-2.60;99.90
5743;DHT22;2896;53.500;10.020;2023-03-16T01:50:05;-2.60;1.00
5743;DHT22;2896;53.500;10.020;2023-03-16T01:52:33;-2.60;99.90
5743;DHT22;2896;53.500;10.020;2023-03-16T01:55:04;-2.60;99.90
5743;DHT22;2896;53.500;10.020;2023-03-16T01:57:34;-2.60;6.70
5743;DHT22;2896;53.500;10.020;2023-03-16T02:00:05;-2.60;99.90
5743;DHT22;2896;53.500;10.020;2023-03-16T02:02:35;-2.50;1.00
5743;DHT22;2896;53.500;10.020;2023-03-16T02:05:10;-2.50;99.90
5743;DHT22;2896;53.500;10.020;2023-03-16T02:07:42;-2.50;1.00
5743;DHT22;2896;53.500;10.020;2023-03-16T02:10:10;-2.60;99.90
5743;DHT22;2896;53.500;10.020;2023-03-16T02:12:38;-2.60;1.00
5743;DHT22;2896;53.500;10.020;2023-03-16T02:15:05;-2.40;1.00
5743;DHT22;2896;53.500;10.020;2023-03-16T02:17:34;-2.70;1.00
5743;DHT22;2896;53.500;10.020;2023-03-16T02:20:13;-2.70;1.00
5743;DHT22;2896;53.500;10.020;2023-03-16T02:22:44;-2.80;99.90
5743;DHT22;2896;53.500;10.020;2023-03-16T02:25:14;-2.80;99.90
5743;DHT22;2896;53.500;10.020;2023-03-16T02:27:47;-2.90;99.90
5743;DHT22;2896;53.500;10.020;2023-03-16T02:30:18;-2.90;99.90
5743;DHT22;2896;53.500;10.020;2023-03-16T02:32:47;-2.90;1.00
5743;DHT22;2896;53.500;10.020;2023-03-16T02:35:16;-2.80;93.00
5743;DHT22;2896;53.500;10.020;2023-03-16T02:37:43;-0.80;99.90
5743;DHT22;2896;53.500;10.020;2023-03-16T02:40:21;-2.70;1.00
5743;DHT22;2896;53.500;10.020;2023-03-16T02:42:53;-2.80;2.60
5743;DHT22;2896;53.500;10.020;2023-03-16T02:45:25;-2.80;99.90
5743;DHT22;2896;53.500;10.020;2023-03-16T02:47:52;-2.80;99.90
5743;DHT22;2896;53.500;10.020;2023-03-16T02:50:20;-2.70;1.00
5743;DHT22;2896;53.500;10.020;2023-03-16T02:52:46;-2.70;1.00
5743;DHT22;2896;53.500;10.020;2023-03-16T02:55:13;-2.40;1.00
5743;DHT22;2896;53.500;10.020;2023-03-16T02:57:40;-0.10;97.70
5743;DHT22;2896;53.500;10.020;2023-03-16T03:00:08;-2.70;99.90
5743;DHT22;2896;53.500;10.020;2023-03-16T03:02:43;-2.70;99.90
5743;DHT22;2896;53.500;10.020;2023-03-16T03:05:10;-2.70;99.90
5743;DHT22;2896;53.500;10.020;2023-03-16T03:07:37;-2.70;99.90
5743;DHT22;2896;53.500;10.020;2023-03-16T03:10:05;-2.70;99.90
5743;DHT22;2896;53.500;10.020;2023-03-16T03:12:32;-2.70;99.90
5743;DHT22;2896;53.500;10.020;2023-03-16T03:14:58;-2.70;99.90
5743;DHT22;2896;53.500;10.020;2023-03-16T03:17:25;-2.60;99.90
5743;DHT22;2896;53.500;10.020;2023-03-16T03:19:56;-2.60;99.90
5743;DHT22;2896;53.500;10.020;2023-03-16T03:22:22;-2.60;99.90
5743;DHT22;2896;53.500;10.020;2023-03-16T03:24:51;-1.00;99.90
5743;DHT22;2896;53.500;10.020;2023-03-16T03:27:18;-2.50;99.90
5743;DHT22;2896;53.500;10.020;2023-03-16T03:29:46;-2.50;99.90
5743;DHT22;2896;53.500;10.020;2023-03-16T03:32:13;-2.50;99.90
5743;DHT22;2896;53.500;10.020;2023-03-16T03:34:40;-2.50;99.90
5743;DHT22;2896;53.500;10.020;2023-03-16T03:37:08;-2.50;99.90
5743;DHT22;2896;53.500;10.020;2023-03-16T03:39:35;-2.60;99.90
5743;DHT22;2896;53.500;10.020;2023-03-16T03:42:05;-2.60;99.90
5743;DHT22;2896;53.500;10.020;2023-03-16T03:44:31;-2.60;99.90
5743;DHT22;2896;53.500;10.020;2023-03-16T03:46:59;-2.60;99.90
5743;DHT22;2896;53.500;10.020;2023-03-16T03:49:25;-2.60;99.90
5743;DHT22;2896;53.500;10.020;2023-03-16T03:51:52;-2.70;99.90
5743;DHT22;2896;53.500;10.020;2023-03-16T03:54:21;-2.70;99.90
5743;DHT22;2896;53.500;10.020;2023-03-16T03:56:47;-2.60;99.90
5743;DHT22;2896;53.500;10.020;2023-03-16T03:59:14;-2.60;99.90
5743;DHT22;2896;53.500;10.020;2023-03-16T04:01:41;-1.10;99.90
5743;DHT22;2896;53.500;10.020;2023-03-16T04:04:07;-2.60;99.90
5743;DHT22;2896;53.500;10.020;2023-03-16T04:06:34;-2.60;99.90
5743;DHT22;2896;53.500;10.020;2023-03-16T04:09:00;-2.60;99.90
5743;DHT22;2896;53.500;10.020;2023-03-16T04:11:28;-2.60;99.90
5743;DHT22;2896;53.500;10.020;2023-03-16T04:13:55;-2.60;99.90
5743;DHT22;2896;53.500;10.020;2023-03-16T04:16:22;-2.60;99.90
5743;DHT22;2896;53.500;10.020;2023-03-16T04:18:51;-2.70;99.90
5743;DHT22;2896;53.500;10.020;2023-03-16T04:21:20;-2.70;99.90
5743;DHT22;2896;53.500;10.020;2023-03-16T04:23:47;-2.70;99.90
5743;DHT22;2896;53.500;10.020;2023-03-16T04:26:14;-2.80;99.90
5743;DHT22;2896;53.500;10.020;2023-03-16T04:28:43;-2.50;99.90
5743;DHT22;2896;53.500;10.020;2023-03-16T04:31:10;-2.50;99.90
5743;DHT22;2896;53.500;10.020;2023-03-16T04:33:37;-2.50;99.90
5743;DHT22;2896;53.500;10.020;2023-03-16T04:36:05;-2.50;99.90
5743;DHT22;2896;53.500;10.020;2023-03-16T04:38:33;-2.50;99.90
5743;DHT22;2896;53.500;10.020;2023-03-16T04:41:00;-2.50;99.90
5743;DHT22;2896;53.500;10.020;2023-03-16T04:43:27;-2.50;99.90
5743;DHT22;2896;53.500;10.020;2023-03-16T04:45:55;-2.50;99.90
5743;DHT22;2896;53.500;10.020;2023-03-16T04:48:22;-2.50;99.90
5743;DHT22;2896;53.500;10.020;2023-03-16T04:50:50;-2.50;99.90
5743;DHT22;2896;53.500;10.020;2023-03-16T04:53:16;-2.40;99.90
5743;DHT22;2896;53.500;10.020;2023-03-16T04:55:43;-2.40;99.90
5743;DHT22;2896;53.500;10.020;2023-03-16T04:58:10;-2.40;99.90
5743;DHT22;2896;53.500;10.020;2023-03-16T05:00:38;-2.30;99.90
5743;DHT22;2896;53.500;10.020;2023-03-16T05:03:06;-2.30;99.90
5743;DHT22;2896;53.500;10.020;2023-03-16T05:05:34;-2.30;99.90
5743;DHT22;2896;53.500;10.020;2023-03-16T05:08:01;-2.30;99.90
5743;DHT22;2896;53.500;10.020;2023-03-16T05:10:30;-2.20;99.90
5743;DHT22;2896;53.500;10.020;2023-03-16T05:12:58;-2.20;99.90
5743;DHT22;2896;53.500;10.020;2023-03-16T05:15:24;-2.50;99.90
5743;DHT22;2896;53.500;10.020;2023-03-16T05:17:51;-2.20;99.90
5743;DHT22;2896;53.500;10.020;2023-03-16T05:20:22;-2.30;99.90
5743;DHT22;2896;53.500;10.020;2023-03-16T05:22:49;-2.20;99.90
5743;DHT22;2896;53.500;10.020;2023-03-16T05:25:17;-2.20;99.90
5743;DHT22;2896;53.500;10.020;2023-03-16T05:27:47;-2.20;99.90
5743;DHT22;2896;53.500;10.020;2023-03-16T05:30:15;-2.20;99.90
5743;DHT22;2896;53.500;10.020;2023-03-16T05:32:42;-2.20;99.90
5743;DHT22;2896;53.500;10.020;2023-03-16T05:35:09;-2.20;99.90
5743;DHT22;2896;53.500;10.020;2023-03-16T05:37:39;-2.20;99.90
5743;DHT22;2896;53.500;10.020;2023-03-16T05:40:08;-2.10;99.90
5743;DHT22;2896;53.500;10.020;2023-03-16T05:42:42;-2.00;99.90
5743;DHT22;2896;53.500;10.020;2023-03-16T05:45:09;-2.00;99.90
5743;DHT22;2896;53.500;10.020;2023-03-16T05:47:36;-1.80;99.90
5743;DHT22;2896;53.500;10.020;2023-03-16T05:50:03;-1.90;99.90
5743;DHT22;2896;53.500;10.020;2023-03-16T05:52:30;-1.70;99.90
5743;DHT22;2896;53.500;10.020;2023-03-16T05:54:59;-1.70;99.90
5743;DHT22;2896;53.500;10.020;2023-03-16T05:57:26;-1.70;99.90
5743;DHT22;2896;53.500;10.020;2023-03-16T05:59:53;-1.90;99.90
5743;DHT22;2896;53.500;10.020;2023-03-16T06:02:20;-1.60;99.90
5743;DHT22;2896;53.500;10.020;2023-03-16T06:04:46;-1.50;99.90
5743;DHT22;2896;53.500;10.020;2023-03-16T06:07:13;-1.40;99.90
5743;DHT22;2896;53.500;10.020;2023-03-16T06:09:39;0.20;99.90
5743;DHT22;2896;53.500;10.020;2023-03-16T06:12:08;-1.20;99.90
5743;DHT22;2896;53.500;10.020;2023-03-16T06:14:35;-1.10;99.90
5743;DHT22;2896;53.500;10.020;2023-03-16T06:17:01;-1.00;99.90
5743;DHT22;2896;53.500;10.020;2023-03-16T06:19:28;-0.90;99.90
5743;DHT22;2896;53.500;10.020;2023-03-16T06:21:56;-0.80;99.90
5743;DHT22;2896;53.500;10.020;2023-03-16T06:24:22;-0.70;99.90
5743;DHT22;2896;53.500;10.020;2023-03-16T06:26:49;-0.80;99.90
5743;DHT22;2896;53.500;10.020;2023-03-16T06:29:17;-0.50;99.90
5743;DHT22;2896;53.500;10.020;2023-03-16T06:31:44;-0.60;99.90
5743;DHT22;2896;53.500;10.020;2023-03-16T06:34:10;-0.40;99.90
5743;DHT22;2896;53.500;10.020;2023-03-16T06:36:37;-0.20;99.90
5743;DHT22;2896;53.500;10.020;2023-03-16T06:39:04;-0.10;53.90
5743;DHT22;2896;53.500;10.020;2023-03-16T06:41:31;0.10;1.00
5743;DHT22;2896;53.500;10.020;2023-03-16T06:43:59;1.50;99.90
5743;DHT22;2896;53.500;10.020;2023-03-16T06:46:27;1.50;99.90
5743;DHT22;2896;53.500;10.020;2023-03-16T06:48:53;0.40;12.70
5743;DHT22;2896;53.500;10.020;2023-03-16T06:51:20;0.50;1.00
5743;DHT22;2896;53.500;10.020;2023-03-16T06:53:46;1.90;99.90
5743;DHT22;2896;53.500;10.020;2023-03-16T06:56:13;0.60;99.90
5743;DHT22;2896;53.500;10.020;2023-03-16T06:58:40;0.50;1.00
5743;DHT22;2896;53.500;10.020;2023-03-16T07:01:06;0.60;1.00
5743;DHT22;2896;53.500;10.020;2023-03-16T07:03:34;0.40;99.90
5743;DHT22;2896;53.500;10.020;2023-03-16T07:06:01;0.40;99.90
5743;DHT22;2896;53.500;10.020;2023-03-16T07:08:27;1.70;99.90
5743;DHT22;2896;53.500;10.020;2023-03-16T07:10:54;0.60;97.50
5743;DHT22;2896;53.500;10.020;2023-03-16T07:13:21;0.70;23.60
5743;DHT22;2896;53.500;10.020;2023-03-16T07:15:49;0.90;1.00
5743;DHT22;2896;53.500;10.020;2023-03-16T07:18:16;1.00;1.00
5743;DHT22;2896;53.500;10.020;2023-03-16T07:20:44;1.10;1.00
5743;DHT22;2896;53.500;10.020;2023-03-16T07:23:11;1.50;1.00
5743;DHT22;2896;53.500;10.020;2023-03-16T07:25:38;2.70;1.00
5743;DHT22;2896;53.500;10.020;2023-03-16T07:28:05;1.80;1.00
5743;DHT22;2896;53.500;10.020;2023-03-16T07:30:31;2.50;1.00
5743;DHT22;2896;53.500;10.020;2023-03-16T07:32:58;3.60;1.00
5743;DHT22;2896;53.500;10.020;2023-03-16T07:35:26;3.30;1.00
5743;DHT22;2896;53.500;10.020;2023-03-16T07:37:54;2.40;1.00
5743;DHT22;2896;53.500;10.020;2023-03-16T07:40:20;2.50;1.00
5743;DHT22;2896;53.500;10.020;2023-03-16T07:42:47;2.60;1.00
5743;DHT22;2896;53.500;10.020;2023-03-16T07:45:14;2.60;1.00
5743;DHT22;2896;53.500;10.020;2023-03-16T07:47:42;2.60;1.00
5743;DHT22;2896;53.500;10.020;2023-03-16T07:50:10;2.70;1.00
5743;DHT22;2896;53.500;10.020;2023-03-16T07:52:37;2.70;1.00
5743;DHT22;2896;53.500;10.020;2023-03-16T07:55:06;2.90;1.00
5743;DHT22;2896;53.500;10.020;2023-03-16T07:57:33;3.20;1.00
5743;DHT22;2896;53.500;10.020;2023-03-16T08:00:00;3.40;99.90
5743;DHT22;2896;53.500;10.020;2023-03-16T08:02:30;3.80;99.90
5743;DHT22;2896;53.500;10.020;2023-03-16T08:04:56;3.80;99.90
5743;DHT22;2896;53.500;10.020;2023-03-16T08:07:23;4.10;99.90
5743;DHT22;2896;53.500;10.020;2023-03-16T08:09:50;4.20;99.90
5743;DHT22;2896;53.500;10.020;2023-03-16T08:12:18;4.30;99.90
5743;DHT22;2896;53.500;10.020;2023-03-16T08:14:45;4.30;99.90
5743;DHT22;2896;53.500;10.020;2023-03-16T08:17:12;4.00;99.90
5743;DHT22;2896;53.500;10.020;2023-03-16T08:19:39;4.10;99.90
5743;DHT22;2896;53.500;10.020;2023-03-16T08:22:07;4.00;99.90
5743;DHT22;2896;53.500;10.020;2023-03-16T08:24:33;4.10;99.90
5743;DHT22;2896;53.500;10.020;2023-03-16T08:27:00;4.40;99.90
5743;DHT22;2896;53.500;10.020;2023-03-16T08:29:29;4.40;99.90
5743;DHT22;2896;53.500;10.020;2023-03-16T08:31:58;4.80;99.90
5743;DHT22;2896;53.500;10.020;2023-03-16T08:34:26;5.00;99.90
5743;DHT22;2896;53.500;10.020;2023-03-16T08:36:53;4.80;99.90
5743;DHT22;2896;53.500;10.020;2023-03-16T08:39:19;5.00;99.90
5743;DHT22;2896;53.500;10.020;2023-03-16T08:41:47;5.20;99.90
5743;DHT22;2896;53.500;10.020;2023-03-16T08:44:14;5.30;99.90
5743;DHT22;2896;53.500;10.020;2023-03-16T08:46:43;5.40;99.90
5743;DHT22;2896;53.500;10.020;2023-03-16T08:49:10;5.50;99.90
5743;DHT22;2896;53.500;10.020;2023-03-16T08:51:37;5.60;99.90
5743;DHT22;2896;53.500;10.020;2023-03-16T08:54:04;5.80;99.90
5743;DHT22;2896;53.500;10.020;2023-03-16T08:56:31;5.80;99.90
5743;DHT22;2896;53.500;10.020;2023-03-16T08:58:58;6.00;99.90
5743;DHT22;2896;53.500;10.020;2023-03-16T09:01:25;6.10;99.90
5743;DHT22;2896;53.500;10.020;2023-03-16T09:03:53;6.10;99.90
5743;DHT22;2896;53.500;10.020;2023-03-16T09:06:19;6.10;99.90
5743;DHT22;2896;53.500;10.020;2023-03-16T09:08:46;6.20;99.90
5743;DHT22;2896;53.500;10.020;2023-03-16T09:11:14;6.40;99.90
5743;DHT22;2896;53.500;10.020;2023-03-16T09:13:42;6.50;99.90
5743;DHT22;2896;53.500;10.020;2023-03-16T09:16:10;6.80;99.90
5743;DHT22;2896;53.500;10.020;2023-03-16T09:18:38;6.90;99.90
5743;DHT22;2896;53.500;10.020;2023-03-16T09:21:08;7.00;99.90
5743;DHT22;2896;53.500;10.020;2023-03-16T09:23:35;7.00;99.90
5743;DHT22;2896;53.500;10.020;2023-03-16T09:26:04;7.20;99.90
5743;DHT22;2896;53.500;10.020;2023-03-16T09:28:32;7.20;99.90
5743;DHT22;2896;53.500;10.020;2023-03-16T09:30:59;7.30;99.90
5743;DHT22;2896;53.500;10.020;2023-03-16T09:33:28;7.50;99.90
5743;DHT22;2896;53.500;10.020;2023-03-16T09:35:56;7.50;99.90
5743;DHT22;2896;53.500;10.020;2023-03-16T09:38:25;7.60;99.90
5743;DHT22;2896;53.500;10.020;2023-03-16T09:40:56;7.80;99.90
5743;DHT22;2896;53.500;10.020;2023-03-16T09:43:50;7.90;99.90
5743;DHT22;2896;53.500;10.020;2023-03-16T09:46:25;8.30;99.90
5743;DHT22;2896;53.500;10.020;2023-03-16T09:48:53;8.40;99.90
5743;DHT22;2896;53.500;10.020;2023-03-16T09:51:27;8.70;99.90
5743;DHT22;2896;53.500;10.020;2023-03-16T09:54:02;8.70;99.90
5743;DHT22;2896;53.500;10.020;2023-03-16T09:56:34;8.70;99.90
5743;DHT22;2896;53.500;10.020;2023-03-16T09:59:09;8.90;99.90
5743;DHT22;2896;53.500;10.020;2023-03-16T10:01:42;9.00;99.90
5743;DHT22;2896;53.500;10.020;2023-03-16T10:04:18;9.10;99.90
5743;DHT22;2896;53.500;10.020;2023-03-16T10:06:58;9.10;99.90
5743;DHT22;2896;53.500;10.020;2023-03-16T10:09:32;9.20;99.90
5743;DHT22;2896;53.500;10.020;2023-03-16T10:12:04;9.30;99.90
5743;DHT22;2896;53.500;10.020;2023-03-16T10:14:38;9.60;99.90
5743;DHT22;2896;53.500;10.020;2023-03-16T10:17:13;9.80;99.90
5743;DHT22;2896;53.500;10.020;2023-03-16T10:19:44;9.80;99.90
5743;DHT22;2896;53.500;10.020;2023-03-16T10:22:18;10.00;99.90
5743;DHT22;2896;53.500;10.020;2023-03-16T10:24:56;10.10;99.90
5743;DHT22;2896;53.500;10.020;2023-03-16T10:27:29;10.10;99.90
5743;DHT22;2896;53.500;10.020;2023-03-16T10:29:56;10.00;99.90
5743;DHT22;2896;53.500;10.020;2023-03-16T10:32:22;10.30;99.90
5743;DHT22;2896;53.500;10.020;2023-03-16T10:34:57;10.20;99.90
5743;DHT22;2896;53.500;10.020;2023-03-16T10:37:24;10.50;99.90
5743;DHT22;2896;53.500;10.020;2023-03-16T10:39:53;11.80;99.90
5743;DHT22;2896;53.500;10.020;2023-03-16T10:42:21;10.60;99.90
5743;DHT22;2896;53.500;10.020;2023-03-16T10:44:47;10.50;99.90
5743;DHT22;2896;53.500;10.020;2023-03-16T10:47:20;10.50;99.90
5743;DHT22;2896;53.500;10.020;2023-03-16T10:49:48;10.40;99.90
5743;DHT22;2896;53.500;10.020;2023-03-16T10:52:19;11.10;99.90
5743;DHT22;2896;53.500;10.020;2023-03-16T10:54:51;10.50;99.90
5743;DHT22;2896;53.500;10.020;2023-03-16T10:57:23;10.60;99.90
5743;DHT22;2896;53.500;10.020;2023-03-16T10:59:52;10.40;99.90
5743;DHT22;2896;53.500;10.020;2023-03-16T11:02:21;10.70;99.90
5743;DHT22;2896;53.500;10.020;2023-03-16T11:04:50;11.10;99.90
5743;DHT22;2896;53.500;10.020;2023-03-16T11:07:20;13.10;99.90
5743;DHT22;2896;53.500;10.020;2023-03-16T11:09:49;11.60;99.90
5743;DHT22;2896;53.500;10.020;2023-03-16T11:12:24;11.60;99.90
5743;DHT22;2896;53.500;10.020;2023-03-16T11:14:51;13.10;99.90
5743;DHT22;2896;53.500;10.020;2023-03-16T11:17:22;11.50;99.90
5743;DHT22;2896;53.500;10.020;2023-03-16T11:19:52;11.80;99.90
5743;DHT22;2896;53.500;10.020;2023-03-16T11:22:21;12.10;99.90
5743;DHT22;2896;53.500;10.020;2023-03-16T11:24:51;12.10;99.90
5743;DHT22;2896;53.500;10.020;2023-03-16T11:27:24;12.00;99.90
5743;DHT22;2896;53.500;10.020;2023-03-16T11:29:59;12.10;99.90
5743;DHT22;2896;53.500;10.020;2023-03-16T11:32:31;12.10;99.90
5743;DHT22;2896;53.500;10.020;2023-03-16T11:34:58;12.00;99.90
5743;DHT22;2896;53.500;10.020;2023-03-16T11:37:38;12.10;99.90
5743;DHT22;2896;53.500;10.020;2023-03-16T11:40:16;11.90;99.90
5743;DHT22;2896;53.500;10.020;2023-03-16T11:42:54;12.00;99.90
5743;DHT22;2896;53.500;10.020;2023-03-16T11:45:30;12.30;99.90
5743;DHT22;2896;53.500;10.020;2023-03-16T11:48:09;12.60;99.90
5743;DHT22;2896;53.500;10.020;2023-03-16T11:50:48;12.70;99.90
5743;DHT22;2896;53.500;10.020;2023-03-16T11:53:28;12.40;99.90
5743;DHT22;2896;53.500;10.020;2023-03-16T11:56:04;12.30;99.90
5743;DHT22;2896;53.500;10.020;2023-03-16T11:58:46;12.30;99.90
5743;DHT22;2896;53.500;10.020;2023-03-16T12:01:21;12.20;99.90
5743;DHT22;2896;53.500;10.020;2023-03-16T12:04:06;12.00;99.90
5743;DHT22;2896;53.500;10.020;2023-03-16T12:06:48;11.90;99.90
5743;DHT22;2896;53.500;10.020;2023-03-16T12:09:41;11.90;99.90
5743;DHT22;2896;53.500;10.020;2023-03-16T12:12:21;11.90;99.90
5743;DHT22;2896;53.500;10.020;2023-03-16T12:14:56;11.80;99.90
5743;DHT22;2896;53.500;10.020;2023-03-16T12:17:28;11.80;99.90
5743;DHT22;2896;53.500;10.020;2023-03-16T12:20:00;11.70;99.90
5743;DHT22;2896;53.500;10.020;2023-03-16T12:22:31;11.90;99.90
5743;DHT22;2896;53.500;10.020;2023-03-16T12:24:59;12.20;99.90
5743;DHT22;2896;53.500;10.020;2023-03-16T12:27:30;12.20;99.90
5743;DHT22;2896;53.500;10.020;2023-03-16T12:30:05;12.40;99.90
5743;DHT22;2896;53.500;10.020;2023-03-16T12:32:44;12.60;99.90
5743;DHT22;2896;53.500;10.020;2023-03-16T12:35:26;12.80;99.90
5743;DHT22;2896;53.500;10.020;2023-03-16T12:38:01;12.60;99.90
5743;DHT22;2896;53.500;10.020;2023-03-16T12:40:39;12.60;99.90
5743;DHT22;2896;53.500;10.020;2023-03-16T12:43:22;13.80;99.90
5743;DHT22;2896;53.500;10.020;2023-03-16T12:45:58;13.00;99.90
5743;DHT22;2896;53.500;10.020;2023-03-16T12:48:30;12.90;99.90
5743;DHT22;2896;53.500;10.020;2023-03-16T12:51:00;13.00;99.90
5743;DHT22;2896;53.500;10.020;2023-03-16T12:53:39;12.80;99.90
5743;DHT22;2896;53.500;10.020;2023-03-16T12:56:07;12.90;99.90
5743;DHT22;2896;53.500;10.020;2023-03-16T12:58:40;12.80;99.90
5743;DHT22;2896;53.500;10.020;2023-03-16T13:01:11;12.60;99.90
5743;DHT22;2896;53.500;10.020;2023-03-16T13:03:40;12.40;99.90
5743;DHT22;2896;53.500;10.020;2023-03-16T13:06:16;12.40;99.90
5743;DHT22;2896;53.500;10.020;2023-03-16T13:08:46;12.50;99.90
5743;DHT22;2896;53.500;10.020;2023-03-16T13:11:15;12.20;99.90
5743;DHT22;2896;53.500;10.020;2023-03-16T13:13:50;12.60;99.90
5743;DHT22;2896;53.500;10.020;2023-03-16T13:16:26;12.50;99.90
5743;DHT22;2896;53.500;10.020;2023-03-16T13:18:54;12.40;99.90
5743;DHT22;2896;53.500;10.020;2023-03-16T13:21:33;12.40;99.90
5743;DHT22;2896;53.500;10.020;2023-03-16T13:24:13;12.50;99.90
5743;DHT22;2896;53.500;10.020;2023-03-16T13:26:45;12.50;99.90
5743;DHT22;2896;53.500;10.020;2023-03-16T13:29:20;12.40;99.90
5743;DHT22;2896;53.500;10.020;2023-03-16T13:31:50;12.30;99.90
5743;DHT22;2896;53.500;10.020;2023-03-16T13:34:20;12.30;99.90
5743;DHT22;2896;53.500;10.020;2023-03-16T13:36:51;12.30;99.90
5743;DHT22;2896;53.500;10.020;2023-03-16T13:39:20;12.20;99.90
5743;DHT22;2896;53.500;10.020;2023-03-16T13:42:01;12.00;99.90
5743;DHT22;2896;53.500;10.020;2023-03-16T13:44:28;11.90;99.90
5743;DHT22;2896;53.500;10.020;2023-03-16T13:47:02;11.50;99.90
5743;DHT22;2896;53.500;10.020;2023-03-16T13:49:28;11.30;99.90
5743;DHT22;2896;53.500;10.020;2023-03-16T13:51:55;11.30;99.90
5743;DHT22;2896;53.500;10.020;2023-03-16T13:54:24;11.30;99.90
5743;DHT22;2896;53.500;10.020;2023-03-16T13:56:55;11.30;99.90
5743;DHT22;2896;53.500;10.020;2023-03-16T13:59:23;11.30;99.90
5743;DHT22;2896;53.500;10.020;2023-03-16T14:01:54;10.90;99.90
5743;DHT22;2896;53.500;10.020;2023-03-16T14:04:24;10.80;99.90
5743;DHT22;2896;53.500;10.020;2023-03-16T14:06:55;10.70;99.90
5743;DHT22;2896;53.500;10.020;2023-03-16T14:09:24;10.50;99.90
5743;DHT22;2896;53.500;10.020;2023-03-16T14:11:53;10.50;99.90
5743;DHT22;2896;53.500;10.020;2023-03-16T14:14:24;10.60;99.90
5743;DHT22;2896;53.500;10.020;2023-03-16T14:16:52;10.60;99.90
5743;DHT22;2896;53.500;10.020;2023-03-16T14:19:25;10.70;99.90
5743;DHT22;2896;53.500;10.020;2023-03-16T14:22:00;10.70;99.90
5743;DHT22;2896;53.500;10.020;2023-03-16T14:24:30;10.60;99.90
5743;DHT22;2896;53.500;10.020;2023-03-16T14:27:08;10.50;99.90
5743;DHT22;2896;53.500;10.020;2023-03-16T14:29:41;10.50;99.90
5743;DHT22;2896;53.500;10.020;2023-03-16T14:32:20;10.60;99.90
5743;DHT22;2896;53.500;10.020;2023-03-16T14:34:49;10.80;99.90
5743;DHT22;2896;53.500;10.020;2023-03-16T14:37:16;10.80;99.90
5743;DHT22;2896;53.500;10.020;2023-03-16T14:39:44;10.90;99.90
5743;DHT22;2896;53.500;10.020;2023-03-16T14:42:14;11.00;99.90
5743;DHT22;2896;53.500;10.020;2023-03-16T14:44:44;11.00;99.90
5743;DHT22;2896;53.500;10.020;2023-03-16T14:47:19;10.90;99.90
5743;DHT22;2896;53.500;10.020;2023-03-16T14:49:47;11.20;99.90
5743;DHT22;2896;53.500;10.020;2023-03-16T14:52:21;11.30;99.90
5743;DHT22;2896;53.500;10.020;2023-03-16T14:54:49;12.60;99.90
5743;DHT22;2896;53.500;10.020;2023-03-16T14:57:17;11.20;99.90
5743;DHT22;2896;53.500;10.020;2023-03-16T14:59:44;11.20;99.90
5743;DHT22;2896;53.500;10.020;2023-03-16T15:02:15;11.30;99.90
5743;DHT22;2896;53.500;10.020;2023-03-16T15:04:42;11.00;99.90
5743;DHT22;2896;53.500;10.020;2023-03-16T15:07:22;10.90;99.90
5743;DHT22;2896;53.500;10.020;2023-03-16T15:09:50;10.70;99.90
5743;DHT22;2896;53.500;10.020;2023-03-16T15:12:18;10.60;99.90
5743;DHT22;2896;53.500;10.020;2023-03-16T15:14:46;10.50;99.90
5743;DHT22;2896;53.500;10.020;2023-03-16T15:17:31;10.50;99.90
5743;DHT22;2896;53.500;10.020;2023-03-16T15:19:58;10.30;99.90
5743;DHT22;2896;53.500;10.020;2023-03-16T15:22:28;10.30;99.90
5743;DHT22;2896;53.500;10.020;2023-03-16T15:24:56;10.20;99.90
5743;DHT22;2896;53.500;10.020;2023-03-16T15:27:27;10.00;99.90
5743;DHT22;2896;53.500;10.020;2023-03-16T15:29:55;10.00;99.90
5743;DHT22;2896;53.500;10.020;2023-03-16T15:32:22;10.00;99.90
5743;DHT22;2896;53.500;10.020;2023-03-16T15:34:49;10.10;99.90
5743;DHT22;2896;53.500;10.020;2023-03-16T15:37:16;9.90;99.90
5743;DHT22;2896;53.500;10.020;2023-03-16T15:39:45;9.90;99.90
5743;DHT22;2896;53.500;10.020;2023-03-16T15:42:13;9.80;99.90
5743;DHT22;2896;53.500;10.020;2023-03-16T15:44:41;9.70;99.90
5743;DHT22;2896;53.500;10.020;2023-03-16T15:47:08;9.70;99.90
5743;DHT22;2896;53.500;10.020;2023-03-16T15:49:35;9.70;99.90
5743;DHT22;2896;53.500;10.020;2023-03-16T15:52:02;9.60;99.90
5743;DHT22;2896;53.500;10.020;2023-03-16T15:54:29;9.60;99.90
5743;DHT22;2896;53.500;10.020;2023-03-16T15:56:59;9.50;99.90
5743;DHT22;2896;53.500;10.020;2023-03-16T15:59:31;9.50;99.90
5743;DHT22;2896;53.500;10.020;2023-03-16T16:02:01;9.60;99.90
5743;DHT22;2896;53.500;10.020;2023-03-16T16:04:28;9.60;99.90
5743;DHT22;2896;53.500;10.020;2023-03-16T16:06:54;9.50;99.90